Time;durP1;ratioP1;P1;durP2;ratioP2;P2;SDS_P1;SDS_P2;PMS_P1;PMS_P2;Temp;Humidity;BMP_temperature;BMP_pressure;BME280_temperature;BME280_humidity;BME280_pressure;Samples;Min_cycle;Max_cycle;Signal;HPM_P1;HPM_P2
2023/10/07 00:00:49;;;;;;;12.00;6.30;;;;;;;12.22;89.18;98169.84;107246;1275;24461;-84
2023/10/07 00:03:34;;;;;;;12.00;7.00;;;;;;;12.24;88.93;98164.08;107309;1273;22517;-83
2023/10/07 00:06:02;;;;;;;11.30;6.10;;;;;;;12.26;89.11;98163.35;107378;1275;25500;-83
2023/10/07 00:08:34;;;;;;;9.40;6.50;;;;;;;12.31;88.99;98165.14;107296;1263;22812;-85
2023/10/07 00:11:09;;;;;;;10.00;5.80;;;;;;;12.37;88.72;98166.52;107269;1275;24341;-85
2023/10/07 00:13:41;;;;;;;12.70;6.90;;;;;;;12.40;88.89;98165.14;107262;1275;25242;-85
2023/10/07 00:16:17;;;;;;;10.00;6.60;;;;;;;12.44;87.78;98169.38;107414;1275;24081;-83
2023/10/07 00:18:45;;;;;;;10.60;6.40;;;;;;;12.47;87.78;98169.14;107304;1275;22540;-83
2023/10/07 00:21:18;;;;;;;12.60;6.40;;;;;;;12.48;86.68;98168.70;107318;1273;22596;-84
2023/10/07 00:23:46;;;;;;;11.00;5.80;;;;;;;12.50;86.37;98164.99;107296;1276;22546;-86
2023/10/07 00:26:14;;;;;;;11.00;5.90;;;;;;;12.51;86.46;98163.19;107445;1275;23965;-83
2023/10/07 00:29:00;;;;;;;8.30;6.00;;;;;;;12.54;86.09;98154.56;107475;1275;23888;-83
2023/10/07 00:31:33;;;;;;;12.30;6.40;;;;;;;12.58;86.32;98149.13;107228;1259;23886;-84
2023/10/07 00:34:04;;;;;;;11.00;6.20;;;;;;;12.61;85.55;98139.86;107396;1275;25514;-84
2023/10/07 00:39:08;;;;;;;10.50;6.20;;;;;;;12.63;83.93;98125.66;107611;1275;22520;-84
2023/10/07 00:41:50;;;;;;;8.70;7.00;;;;;;;12.64;83.84;98127.25;108315;1273;22538;-84
2023/10/07 00:44:29;;;;;;;8.60;6.10;;;;;;;12.62;83.73;98123.18;107372;1275;22528;-84
2023/10/07 00:52:29;;;;;;;8.90;6.30;;;;;;;12.56;83.24;98120.08;107414;1275;24210;-85
2023/10/07 01:03:47;;;;;;;8.10;6.00;;;;;;;12.59;82.52;98104.17;107084;1271;22543;-84
2023/10/07 01:06:07;;;;;;;10.20;6.90;;;;;;;12.59;82.25;98098.60;107195;1273;22524;-84
2023/10/07 01:08:38;;;;;;;9.70;6.30;;;;;;;12.57;81.46;98098.81;107277;1275;24200;-85
2023/10/07 01:11:08;;;;;;;13.60;6.30;;;;;;;12.56;82.08;98097.17;107260;1275;24307;-84
2023/10/07 01:13:36;;;;;;;12.40;6.40;;;;;;;12.54;81.32;98098.02;107342;1268;23034;-84
2023/10/07 01:16:06;;;;;;;12.10;6.50;;;;;;;12.53;80.89;98092.37;107313;1275;22697;-84
2023/10/07 01:18:40;;;;;;;12.10;6.20;;;;;;;12.57;81.44;98094.98;107371;1260;22534;-84
2023/10/07 01:21:11;;;;;;;9.60;6.60;;;;;;;12.59;81.60;98088.87;107403;1275;22515;-85
2023/10/07 01:23:44;;;;;;;11.10;7.10;;;;;;;12.60;81.22;98090.86;107589;1260;22647;-84
2023/10/07 01:26:20;;;;;;;11.50;7.10;;;;;;;12.60;80.88;98086.69;107600;1275;25440;-85
2023/10/07 01:28:56;;;;;;;11.90;8.40;;;;;;;12.58;80.28;98076.77;107377;1275;22674;-84
2023/10/07 01:31:29;;;;;;;10.60;6.80;;;;;;;12.57;80.71;98075.15;107499;1275;25663;-84
2023/10/07 01:34:01;;;;;;;9.30;6.50;;;;;;;12.54;80.29;98077.74;107586;1275;25419;-84
2023/10/07 01:36:30;;;;;;;8.70;5.80;;;;;;;12.52;80.74;98077.98;107634;1276;24193;-83
2023/10/07 01:39:01;;;;;;;9.70;6.70;;;;;;;12.49;80.57;98072.23;107395;1275;23205;-84
2023/10/07 01:41:30;;;;;;;12.70;5.70;;;;;;;12.51;81.16;98067.98;107313;1275;24212;-84
2023/10/07 01:44:04;;;;;;;8.00;6.00;;;;;;;12.54;81.45;98064.83;107304;1273;22707;-84
2023/10/07 01:46:34;;;;;;;11.50;6.80;;;;;;;12.59;81.21;98056.01;107358;1270;24365;-84
2023/10/07 01:49:06;;;;;;;10.10;6.40;;;;;;;12.60;81.07;98053.64;107330;1274;25258;-83
2023/10/07 01:51:36;;;;;;;13.10;6.70;;;;;;;12.60;80.81;98049.13;107307;1275;22525;-85
2023/10/07 01:54:08;;;;;;;10.20;6.90;;;;;;;12.60;80.14;98040.89;107284;1275;22669;-84
2023/10/07 01:56:38;;;;;;;10.50;6.60;;;;;;;12.60;80.43;98038.41;107375;1275;22723;-85
2023/10/07 02:01:49;;;;;;;9.40;6.90;;;;;;;12.59;79.77;98031.09;107239;1263;25500;-85
2023/10/07 02:04:26;;;;;;;10.00;5.80;;;;;;;12.61;79.82;98039.14;107259;1275;22629;-84
2023/10/07 02:06:58;;;;;;;8.50;5.90;;;;;;;12.64;80.35;98041.52;107333;1273;22758;-85
2023/10/07 02:09:35;;;;;;;8.90;5.90;;;;;;;12.65;80.61;98035.64;107371;1268;23281;-85
2023/10/07 02:12:09;;;;;;;10.10;5.80;;;;;;;12.66;80.62;98029.52;107277;1275;22633;-84
2023/10/07 02:14:37;;;;;;;10.00;6.40;;;;;;;12.66;80.43;98025.60;107330;1270;22644;-85
2023/10/07 02:17:08;;;;;;;11.20;6.80;;;;;;;12.66;79.97;98028.21;107334;1266;25331;-84
2023/10/07 02:19:40;;;;;;;12.10;7.50;;;;;;;12.68;79.46;98022.75;107357;1267;22586;-82
2023/10/07 02:22:13;;;;;;;9.40;7.10;;;;;;;12.69;79.30;98020.46;107331;1275;22800;-81
2023/10/07 02:24:41;;;;;;;7.30;6.00;;;;;;;12.69;79.38;98018.84;107381;1275;24042;-81
2023/10/07 02:27:17;;;;;;;9.40;6.00;;;;;;;12.70;79.55;98018.68;107317;1263;23707;-82
2023/10/07 02:29:56;;;;;;;10.20;6.30;;;;;;;12.72;79.96;98024.43;107274;1275;22657;-82
2023/10/07 02:32:24;;;;;;;10.10;6.80;;;;;;;12.76;80.30;98024.77;107282;1275;23231;-82
2023/10/07 02:34:52;;;;;;;10.30;6.50;;;;;;;12.80;79.83;98023.05;107295;1275;22654;-82
2023/10/07 02:37:30;;;;;;;10.80;7.00;;;;;;;12.81;79.33;98007.02;107326;1275;24203;-82
2023/10/07 02:42:54;;;;;;;11.30;7.00;;;;;;;12.86;78.92;98004.81;107084;1275;25434;-82
2023/10/07 02:45:28;;;;;;;8.80;6.70;;;;;;;12.85;79.32;97996.89;107402;1274;22618;-82
2023/10/07 02:48:01;;;;;;;9.30;6.60;;;;;;;12.86;79.02;97996.98;107371;1261;22761;-82
2023/10/07 02:50:31;;;;;;;11.80;7.20;;;;;;;12.88;78.31;97998.55;107418;1276;22945;-83
2023/10/07 02:53:10;;;;;;;11.10;7.50;;;;;;;12.92;78.18;97993.41;107539;1264;22632;-84
2023/10/07 02:55:58;;;;;;;8.90;6.80;;;;;;;12.95;78.21;97983.70;107307;1276;23171;-82
2023/10/07 02:58:32;;;;;;;11.50;7.80;;;;;;;12.99;79.03;97973.65;107382;1267;22670;-85
2023/10/07 03:01:11;;;;;;;11.70;7.80;;;;;;;13.04;78.93;97975.08;107481;1275;23929;-81
2023/10/07 03:03:41;;;;;;;10.40;7.60;;;;;;;13.06;78.87;97966.27;107920;1273;22667;-80
2023/10/07 03:06:09;;;;;;;12.20;7.90;;;;;;;13.07;78.33;97967.63;107381;1275;24685;-80
2023/10/07 03:08:40;;;;;;;10.30;7.20;;;;;;;13.10;77.82;97962.93;107362;1275;24090;-81
2023/10/07 03:11:11;;;;;;;11.00;7.60;;;;;;;13.12;77.31;97962.79;107200;1275;22543;-79
2023/10/07 03:13:40;;;;;;;12.00;7.50;;;;;;;13.13;77.07;97959.44;107273;1261;22518;-79
2023/10/07 03:24:10;;;;;;;10.90;7.70;;;;;;;13.22;76.64;97969.05;107328;1260;22543;-80
2023/10/07 03:26:43;;;;;;;9.20;6.30;;;;;;;13.24;76.24;97977.70;107381;1261;22526;-79
2023/10/07 03:29:27;;;;;;;10.20;7.20;;;;;;;13.23;76.44;97968.92;107380;1264;24274;-79
2023/10/07 03:31:55;;;;;;;10.70;7.60;;;;;;;13.21;76.32;97968.32;107305;1273;22693;-79
2023/10/07 03:34:24;;;;;;;11.00;7.80;;;;;;;13.23;76.20;97968.83;107237;1260;23903;-78
2023/10/07 03:42:23;;;;;;;9.60;7.00;;;;;;;13.22;76.36;97966.18;107393;1273;22755;-82
2023/10/07 03:44:51;;;;;;;11.00;7.20;;;;;;;13.27;76.99;97964.61;107257;1275;22534;-79
2023/10/07 03:47:19;;;;;;;13.10;7.20;;;;;;;13.29;76.51;97955.09;107809;1267;22642;-80
2023/10/07 03:49:54;;;;;;;10.30;6.90;;;;;;;13.29;76.39;97955.47;107569;1264;22808;-80
2023/10/07 03:52:28;;;;;;;12.30;7.30;;;;;;;13.29;76.02;97954.61;107629;1276;26731;-79
2023/10/07 03:54:59;;;;;;;9.00;6.90;;;;;;;13.28;75.99;97954.04;107204;1261;22531;-80
2023/10/07 03:57:28;;;;;;;10.00;6.90;;;;;;;13.27;76.17;97955.15;107305;1263;25306;-80
2023/10/07 03:59:58;;;;;;;12.70;8.20;;;;;;;13.27;76.07;97953.46;107250;1261;24506;-79
2023/10/07 04:05:09;;;;;;;11.80;7.90;;;;;;;13.25;76.11;97956.44;107403;1264;24216;-80
2023/10/07 04:07:39;;;;;;;12.50;6.60;;;;;;;13.24;76.40;97947.48;107368;1275;24366;-78
2023/10/07 04:10:21;;;;;;;13.80;7.30;;;;;;;13.25;76.92;97961.47;107390;1263;25408;-79
2023/10/07 04:12:49;;;;;;;14.50;7.10;;;;;;;13.29;76.61;97965.09;107219;1270;22669;-80
2023/10/07 04:15:18;;;;;;;12.20;7.90;;;;;;;13.30;76.55;97958.31;107342;1275;22582;-79
2023/10/07 04:17:46;;;;;;;11.80;6.80;;;;;;;13.27;76.57;97958.30;107404;1260;22520;-81
2023/10/07 04:20:18;;;;;;;16.60;7.90;;;;;;;13.24;76.54;97951.26;107415;1257;22595;-81
2023/10/07 04:23:03;;;;;;;10.90;7.10;;;;;;;13.22;76.64;97946.99;107545;1267;25268;-78
2023/10/07 04:25:31;;;;;;;10.10;8.30;;;;;;;13.20;76.36;97942.49;107314;1263;22545;-81
2023/10/07 04:28:06;;;;;;;10.10;7.30;;;;;;;13.19;76.42;97934.92;107221;1276;22538;-80
2023/10/07 04:30:46;;;;;;;10.50;7.80;;;;;;;13.20;76.30;97935.23;107234;1274;22551;-79
2023/10/07 04:33:17;;;;;;;12.70;7.20;;;;;;;13.21;76.22;97938.93;107301;1263;22620;-79
2023/10/07 04:35:50;;;;;;;11.70;7.20;;;;;;;13.23;76.65;97948.20;107293;1274;22521;-81
2023/10/07 04:38:52;;;;;;;10.90;6.90;;;;;;;13.25;77.02;97958.82;107327;1269;22563;-79
2023/10/07 04:44:20;;;;;;;11.50;7.60;;;;;;;13.29;76.31;97959.52;107261;1275;24241;-80
2023/10/07 04:46:58;;;;;;;10.10;6.90;;;;;;;13.27;76.46;97953.55;107176;1253;22595;-80
2023/10/07 04:49:36;;;;;;;11.20;7.70;;;;;;;13.28;76.18;97960.48;107350;1260;22538;-80
2023/10/07 04:52:07;;;;;;;11.00;8.30;;;;;;;13.28;75.98;97963.34;107251;1275;26728;-79
2023/10/07 04:54:36;;;;;;;11.70;7.80;;;;;;;13.29;76.00;97971.80;107299;1272;23288;-80
2023/10/07 04:57:09;;;;;;;9.70;7.60;;;;;;;13.31;75.88;97967.39;107322;1275;23217;-82
2023/10/07 04:59:45;;;;;;;10.60;8.20;;;;;;;13.30;76.10;97974.06;107459;1263;22548;-83
2023/10/07 05:02:15;;;;;;;11.60;8.40;;;;;;;13.29;76.14;97971.16;107374;1275;22532;-83
2023/10/07 05:04:50;;;;;;;10.90;7.50;;;;;;;13.29;76.29;97963.21;107242;1263;23332;-81
2023/10/07 05:07:26;;;;;;;13.90;8.00;;;;;;;13.31;76.89;97974.23;107353;1275;25560;-84
2023/10/07 05:09:56;;;;;;;11.80;8.50;;;;;;;13.35;76.98;97971.10;107295;1273;24429;-82
2023/10/07 05:12:24;;;;;;;11.10;8.10;;;;;;;13.35;76.74;97967.45;107302;1276;24283;-80
2023/10/07 05:14:52;;;;;;;11.40;7.90;;;;;;;13.35;76.46;97964.59;107388;1270;24299;-81
2023/10/07 05:17:22;;;;;;;11.50;7.70;;;;;;;13.34;76.23;97961.83;107380;1270;26503;-80
2023/10/07 05:19:51;;;;;;;11.40;7.30;;;;;;;13.33;76.18;97960.48;107335;1270;23877;-81
2023/10/07 05:22:19;;;;;;;12.50;7.50;;;;;;;13.33;75.98;97962.40;107677;1267;24113;-79
2023/10/07 05:24:51;;;;;;;10.80;8.00;;;;;;;13.34;75.97;97965.77;107611;1272;23273;-80
2023/10/07 05:27:45;;;;;;;11.90;8.30;;;;;;;13.33;76.18;97968.20;107457;1275;22776;-78
2023/10/07 05:30:21;;;;;;;11.20;8.40;;;;;;;13.34;75.84;97970.80;107314;1273;22523;-79
2023/10/07 05:32:49;;;;;;;11.80;7.80;;;;;;;13.35;75.97;97967.59;107348;1271;22521;-80
2023/10/07 05:35:18;;;;;;;11.70;7.50;;;;;;;13.34;76.26;97969.05;107300;1263;25591;-80
2023/10/07 05:37:46;;;;;;;13.50;10.40;;;;;;;13.39;76.46;97970.69;107283;1275;25466;-78
2023/10/07 05:40:15;;;;;;;11.20;8.50;;;;;;;13.40;76.44;97971.33;107274;1275;22640;-79
2023/10/07 05:42:44;;;;;;;10.30;7.70;;;;;;;13.41;76.25;97976.23;107369;1253;22624;-79
2023/10/07 05:45:15;;;;;;;13.90;8.30;;;;;;;13.43;75.92;97978.72;107312;1267;24228;-79
2023/10/07 05:47:45;;;;;;;10.00;7.50;;;;;;;13.45;75.74;97982.13;107348;1275;24334;-79
2023/10/07 05:50:13;;;;;;;11.00;8.60;;;;;;;13.45;75.70;97982.89;107341;1275;22544;-80
2023/10/07 05:52:42;;;;;;;12.60;7.70;;;;;;;13.46;75.62;97983.81;107307;1259;23933;-79
2023/10/07 05:55:10;;;;;;;12.50;8.70;;;;;;;13.46;75.39;97979.30;107342;1263;25334;-80
2023/10/07 05:57:39;;;;;;;10.30;8.20;;;;;;;13.50;75.47;97985.87;107164;1267;179565;-78
2023/10/07 06:00:09;;;;;;;11.20;8.10;;;;;;;13.52;75.24;97984.79;106915;1260;22633;-80
2023/10/07 06:02:37;;;;;;;11.90;8.20;;;;;;;13.53;75.27;97986.70;107330;1263;25648;-80
2023/10/07 06:05:06;;;;;;;12.20;8.60;;;;;;;13.57;74.99;97986.94;107360;1261;22517;-80
2023/10/07 06:07:35;;;;;;;11.50;8.40;;;;;;;13.59;74.98;97987.04;107189;1266;22681;-79
2023/10/07 06:10:09;;;;;;;12.40;8.70;;;;;;;13.60;75.17;97984.33;107390;1275;22629;-80
2023/10/07 06:12:37;;;;;;;12.70;8.60;;;;;;;13.64;74.96;97987.83;107384;1263;22535;-79
2023/10/07 06:15:08;;;;;;;13.20;8.10;;;;;;;13.67;75.03;97992.36;107322;1263;25338;-79
2023/10/07 06:17:36;;;;;;;13.60;8.40;;;;;;;13.71;74.91;97998.42;107315;1263;22560;-80
2023/10/07 06:20:14;;;;;;;12.10;8.40;;;;;;;13.75;74.55;98004.64;107285;1263;25666;-80
2023/10/07 06:22:46;;;;;;;11.90;8.20;;;;;;;13.78;74.49;97996.73;107381;1275;22528;-80
2023/10/07 06:25:18;;;;;;;12.20;7.80;;;;;;;13.82;74.57;98002.86;107294;1275;22644;-80
2023/10/07 06:27:46;;;;;;;13.80;8.50;;;;;;;13.86;74.24;97999.97;107313;1275;22616;-80
2023/10/07 06:30:20;;;;;;;14.10;8.20;;;;;;;13.89;74.25;98000.16;107272;1260;22580;-81
2023/10/07 06:33:02;;;;;;;15.00;9.00;;;;;;;13.92;73.95;98004.95;107217;1260;22645;-80
2023/10/07 06:35:32;;;;;;;14.50;8.30;;;;;;;13.93;74.00;98001.52;107202;1273;22557;-79
2023/10/07 06:38:03;;;;;;;13.40;8.70;;;;;;;13.94;74.06;97998.54;107228;1263;22598;-80
2023/10/07 06:40:34;;;;;;;11.70;8.40;;;;;;;13.94;74.10;98004.22;107264;1269;24106;-80
2023/10/07 06:43:03;;;;;;;11.60;9.20;;;;;;;13.94;73.99;97998.80;107287;1276;24412;-80
2023/10/07 06:45:38;;;;;;;12.30;9.60;;;;;;;13.95;73.90;98008.05;107378;1268;22546;-78
2023/10/07 06:48:08;;;;;;;15.70;9.10;;;;;;;13.95;73.86;98006.65;107376;1262;22534;-80
2023/10/07 06:50:41;;;;;;;10.20;8.40;;;;;;;13.94;73.98;98009.59;107386;1267;24275;-81
2023/10/07 06:53:12;;;;;;;15.00;9.60;;;;;;;13.94;73.88;98017.12;107309;1274;23417;-84
2023/10/07 06:55:44;;;;;;;11.90;8.50;;;;;;;13.94;74.16;98019.39;107243;1267;23894;-80
2023/10/07 06:58:14;;;;;;;12.10;10.00;;;;;;;13.95;74.13;98018.11;107263;1260;22677;-80
2023/10/07 07:00:47;;;;;;;13.00;9.10;;;;;;;13.96;74.14;98016.04;107280;1263;22522;-83
2023/10/07 07:03:19;;;;;;;12.90;9.10;;;;;;;13.98;74.24;98006.27;107357;1272;24351;-81
2023/10/07 07:05:50;;;;;;;12.30;8.70;;;;;;;14.04;73.95;98009.77;107469;1267;22528;-82
2023/10/07 07:08:24;;;;;;;16.00;8.30;;;;;;;14.06;73.90;98010.73;107556;1273;22521;-83
2023/10/07 07:10:55;;;;;;;14.60;8.50;;;;;;;14.10;73.86;98007.63;107392;1267;24735;-81
2023/10/07 07:13:27;;;;;;;13.30;9.60;;;;;;;14.14;73.67;97997.55;107259;1270;24280;-81
2023/10/07 07:16:07;;;;;;;11.60;8.70;;;;;;;14.15;73.96;98003.04;107556;1268;24771;-82
2023/10/07 07:18:40;;;;;;;11.50;8.60;;;;;;;14.19;73.92;98000.04;107587;1273;25413;-81
2023/10/07 07:21:26;;;;;;;12.40;9.50;;;;;;;14.23;74.09;98001.16;108236;1275;25586;-84
2023/10/07 07:23:54;;;;;;;13.30;9.50;;;;;;;14.28;73.77;97997.14;107525;1267;25328;-83
2023/10/07 07:26:22;;;;;;;15.30;9.10;;;;;;;14.31;73.91;97995.41;107749;1275;22570;-81
2023/10/07 07:28:55;;;;;;;12.10;8.40;;;;;;;14.37;73.88;97995.33;107765;1275;24041;-82
2023/10/07 07:31:33;;;;;;;11.30;8.80;;;;;;;14.41;73.81;97991.89;107215;1269;22544;-80
2023/10/07 07:34:08;;;;;;;13.60;8.80;;;;;;;14.47;73.87;97994.91;107279;1261;24381;-81
2023/10/07 07:36:39;;;;;;;11.90;8.70;;;;;;;14.52;73.62;97993.08;107602;1270;22544;-87
2023/10/07 07:39:17;;;;;;;10.30;7.70;;;;;;;14.59;73.67;97987.64;107198;1272;24369;-88
2023/10/07 07:41:55;;;;;;;15.00;9.00;;;;;;;14.65;73.45;97983.77;107689;1275;24996;-89
2023/10/07 07:44:34;;;;;;;13.20;8.70;;;;;;;14.70;73.52;97984.02;109125;1275;24312;-84
2023/10/07 07:47:03;;;;;;;12.90;8.60;;;;;;;14.75;73.33;97985.08;108052;1271;22491;-83
2023/10/07 07:49:32;;;;;;;11.30;8.70;;;;;;;14.79;73.55;97979.33;107492;1275;22573;-82
2023/10/07 07:52:02;;;;;;;14.50;9.10;;;;;;;14.86;73.48;97982.11;107853;1268;26698;-84
2023/10/07 07:54:30;;;;;;;13.70;8.40;;;;;;;14.94;73.42;97981.41;107821;1254;24240;-83
2023/10/07 07:57:04;;;;;;;13.40;9.20;;;;;;;14.99;73.29;97990.78;107582;1269;22541;-83
2023/10/07 07:59:32;;;;;;;11.80;8.70;;;;;;;15.05;73.47;97979.94;107420;1269;22534;-86
2023/10/07 08:02:13;;;;;;;11.60;9.00;;;;;;;15.14;73.30;97986.09;107263;1276;24356;-84
2023/10/07 08:04:48;;;;;;;11.50;8.50;;;;;;;15.21;73.23;97991.06;107464;1260;22566;-83
2023/10/07 08:07:25;;;;;;;13.00;8.40;;;;;;;15.26;73.04;97998.69;107415;1275;24043;-84
2023/10/07 08:09:57;;;;;;;10.50;8.40;;;;;;;15.29;72.87;97995.08;107348;1270;24241;-85
2023/10/07 08:12:31;;;;;;;12.90;7.90;;;;;;;15.30;73.10;97991.48;107496;1273;22524;-84
2023/10/07 08:15:09;;;;;;;10.00;8.60;;;;;;;15.36;73.11;97991.25;107496;1253;22576;-82
2023/10/07 08:17:37;;;;;;;11.90;8.00;;;;;;;15.49;73.33;98001.69;107481;1274;25399;-82
2023/10/07 08:20:13;;;;;;;11.10;8.10;;;;;;;15.59;72.83;98007.61;107380;1263;25268;-81
2023/10/07 08:22:51;;;;;;;13.60;8.80;;;;;;;15.64;72.94;98001.27;107490;1260;25438;-81
2023/10/07 08:25:37;;;;;;;10.60;7.50;;;;;;;15.69;72.39;97996.52;107328;1263;22543;-80
2023/10/07 08:28:37;;;;;;;13.50;8.40;;;;;;;15.75;72.59;97985.74;107440;1267;24355;-81
2023/10/07 08:31:37;;;;;;;14.00;8.20;;;;;;;15.84;72.46;97986.99;107432;1274;22520;-82
2023/10/07 08:34:09;;;;;;;11.90;9.20;;;;;;;15.91;72.25;97979.49;107509;1269;23408;-83
2023/10/07 08:36:43;;;;;;;13.50;9.20;;;;;;;16.02;72.24;97975.56;107724;1267;25204;-80
2023/10/07 08:39:17;;;;;;;12.00;9.10;;;;;;;16.06;71.58;97969.97;107424;1270;22522;-79
2023/10/07 08:41:52;;;;;;;12.00;8.50;;;;;;;16.07;71.31;97967.59;107355;1266;24281;-79
2023/10/07 08:44:29;;;;;;;14.20;8.20;;;;;;;16.06;71.47;97965.23;107404;1275;25245;-80
2023/10/07 08:47:04;;;;;;;12.30;8.40;;;;;;;16.12;71.75;97968.00;107374;1274;22527;-78
2023/10/07 08:49:35;;;;;;;12.50;8.20;;;;;;;16.28;71.32;97968.63;107357;1260;22520;-81
2023/10/07 08:52:10;;;;;;;11.90;9.00;;;;;;;16.35;71.04;97975.43;107360;1253;23378;-80
2023/10/07 08:54:38;;;;;;;15.50;8.70;;;;;;;16.45;70.99;97967.85;106992;1262;22635;-78
2023/10/07 08:57:15;;;;;;;10.40;8.80;;;;;;;16.52;70.34;97963.96;107309;1260;25465;-78
2023/10/07 08:59:56;;;;;;;18.20;9.60;;;;;;;16.58;70.17;97962.40;107294;1260;22546;-79
2023/10/07 09:02:27;;;;;;;21.00;10.30;;;;;;;16.76;70.84;97963.79;107569;1275;22472;-91
2023/10/07 09:05:06;;;;;;;12.20;8.20;;;;;;;16.94;70.07;97951.19;107113;1275;24370;-81
2023/10/07 09:07:35;;;;;;;11.00;8.70;;;;;;;16.99;70.13;97951.79;107253;1263;22575;-80
2023/10/07 09:10:14;;;;;;;14.60;8.60;;;;;;;17.05;69.98;97958.28;107309;1272;22613;-80
2023/10/07 09:12:46;;;;;;;10.90;7.70;;;;;;;17.09;69.97;97962.15;107094;1275;26614;-82
2023/10/07 09:15:25;;;;;;;15.60;8.20;;;;;;;17.09;70.04;97956.31;107386;1269;22753;-81
2023/10/07 09:18:01;;;;;;;15.80;8.80;;;;;;;17.10;69.83;97946.48;107539;1269;24288;-81
2023/10/07 09:20:35;;;;;;;14.10;9.20;;;;;;;17.11;69.66;97939.89;107415;1260;25320;-78
2023/10/07 09:23:15;;;;;;;14.40;9.10;;;;;;;17.15;69.69;97939.40;107474;1261;23286;-79
2023/10/07 09:25:50;;;;;;;14.30;8.80;;;;;;;17.19;69.34;97948.39;107320;1260;23404;-78
2023/10/07 09:28:29;;;;;;;17.10;8.70;;;;;;;17.23;69.50;97938.17;107320;1268;23007;-78
2023/10/07 09:31:05;;;;;;;9.80;7.10;;;;;;;17.37;69.17;97948.71;107280;1267;22527;-79
2023/10/07 09:33:36;;;;;;;11.90;7.90;;;;;;;17.54;67.98;97946.34;107529;1269;23621;-79
2023/10/07 09:42:00;;;;;;;18.80;7.90;;;;;;;17.72;67.06;97948.44;106741;1267;25290;-77
2023/10/07 09:44:30;;;;;;;13.20;7.40;;;;;;;17.73;66.98;97942.80;106933;1275;24221;-77
2023/10/07 09:47:09;;;;;;;11.70;7.20;;;;;;;17.76;66.94;97937.99;107263;1268;22656;-78
2023/10/07 09:49:37;;;;;;;8.80;6.40;;;;;;;17.88;67.10;97938.36;107271;1253;22560;-78
2023/10/07 09:52:17;;;;;;;12.80;7.40;;;;;;;17.92;66.26;97934.19;107318;1275;22624;-80
2023/10/07 09:54:57;;;;;;;10.30;7.30;;;;;;;17.92;66.48;97936.92;107414;1275;25375;-80
2023/10/07 09:57:43;;;;;;;11.50;6.70;;;;;;;18.03;65.95;97932.32;107249;1273;22527;-81
2023/10/07 10:03:30;;;;;;;12.50;8.40;;;;;;;18.14;65.84;97933.73;107069;1253;22630;-81
2023/10/07 10:06:17;;;;;;;10.20;6.90;;;;;;;18.28;65.38;97943.05;107920;1263;25124;-79
2023/10/07 10:09:08;;;;;;;10.60;6.80;;;;;;;18.30;65.18;97929.80;108421;1267;22524;-80
2023/10/07 10:16:57;;;;;;;11.10;7.60;;;;;;;18.34;65.46;97921.09;107486;1272;22710;-82
2023/10/07 10:19:26;;;;;;;9.30;7.20;;;;;;;18.34;65.73;97921.17;107566;1272;25450;-83
2023/10/07 10:21:55;;;;;;;11.60;7.10;;;;;;;18.36;65.56;97918.48;107321;1269;23845;-84
2023/10/07 10:24:28;;;;;;;8.80;6.30;;;;;;;18.31;65.42;97927.02;107449;1275;22593;-85
2023/10/07 10:27:04;;;;;;;9.40;6.40;;;;;;;18.25;64.98;97926.92;107341;1260;25894;-82
2023/10/07 10:29:36;;;;;;;10.10;6.90;;;;;;;18.15;64.87;97917.30;107475;1267;24235;-82
2023/10/07 10:32:16;;;;;;;11.90;6.90;;;;;;;18.08;65.02;97930.12;107648;1275;22615;-84
2023/10/07 10:34:46;;;;;;;10.70;7.10;;;;;;;18.06;65.24;97932.26;108118;1274;22538;-82
2023/10/07 10:37:15;;;;;;;10.90;6.90;;;;;;;18.08;65.51;97918.53;108639;1267;23735;-85
2023/10/07 10:39:43;;;;;;;8.00;6.20;;;;;;;18.15;65.60;97903.27;108097;1266;22618;-84
2023/10/07 10:42:13;;;;;;;13.40;7.40;;;;;;;18.25;64.91;97899.49;108239;1275;25478;-86
2023/10/07 10:44:46;;;;;;;9.30;6.10;;;;;;;18.31;64.71;97884.06;108002;1275;23084;-86
2023/10/07 10:47:21;;;;;;;9.30;6.80;;;;;;;18.42;64.78;97879.83;107819;1275;22593;-84
2023/10/07 10:49:54;;;;;;;9.80;7.80;;;;;;;18.57;64.29;97881.77;107777;1275;22777;-79
2023/10/07 10:52:26;;;;;;;13.70;7.20;;;;;;;18.69;63.88;97873.32;108517;1275;24359;-82
2023/10/07 10:54:55;;;;;;;9.30;7.40;;;;;;;18.75;63.33;97887.85;107315;1275;22533;-83
2023/10/07 10:57:24;;;;;;;10.90;6.60;;;;;;;18.73;62.54;97877.75;107885;1269;22633;-84
2023/10/07 10:59:52;;;;;;;10.80;7.20;;;;;;;18.68;62.38;97882.90;107928;1274;24247;-83
2023/10/07 11:02:21;;;;;;;14.40;7.40;;;;;;;18.72;62.19;97882.62;107614;1273;22724;-82
2023/10/07 11:04:51;;;;;;;10.20;8.50;;;;;;;18.78;62.11;97872.48;107666;1273;22646;-86
2023/10/07 11:07:22;;;;;;;10.90;7.40;;;;;;;18.88;62.19;97880.11;107557;1274;22599;-87
2023/10/07 11:09:54;;;;;;;8.00;6.20;;;;;;;18.99;61.64;97882.13;107701;1273;25386;-87
2023/10/07 11:12:27;;;;;;;11.20;7.10;;;;;;;19.02;61.84;97878.42;107655;1273;22525;-87
2023/10/07 11:15:14;;;;;;;9.90;7.00;;;;;;;18.99;61.86;97874.30;107621;1274;24384;-87
2023/10/07 11:17:52;;;;;;;12.80;6.40;;;;;;;18.86;61.88;97865.52;107582;1273;22613;-87
2023/10/07 11:20:23;;;;;;;9.90;6.60;;;;;;;18.80;61.72;97873.86;107707;1274;22659;-89
2023/10/07 11:22:53;;;;;;;9.50;6.50;;;;;;;18.69;61.68;97871.23;107651;1274;22536;-87
2023/10/07 11:25:28;;;;;;;9.10;7.00;;;;;;;18.60;61.77;97863.35;107510;1274;22542;-88
2023/10/07 11:27:58;;;;;;;10.60;6.50;;;;;;;18.53;62.25;97865.67;107418;1274;25469;-89
2023/10/07 11:30:26;;;;;;;11.70;7.20;;;;;;;18.53;62.20;97856.94;107442;1273;25309;-88
2023/10/07 11:32:54;;;;;;;9.00;6.80;;;;;;;18.55;62.85;97859.44;107362;1274;22547;-88
2023/10/07 11:35:31;;;;;;;12.80;7.20;;;;;;;18.64;62.73;97857.06;107482;1274;25415;-89
2023/10/07 11:38:02;;;;;;;11.50;6.80;;;;;;;18.72;62.90;97863.18;107433;1274;23324;-86
2023/10/07 11:40:31;;;;;;;12.40;7.70;;;;;;;18.74;63.25;97856.26;107162;1274;25476;-87
2023/10/07 11:43:04;;;;;;;10.90;6.90;;;;;;;18.78;63.23;97854.63;107384;1274;22572;-88
2023/10/07 11:45:33;;;;;;;13.90;7.20;;;;;;;18.76;63.25;97844.42;107511;1274;22643;-87
2023/10/07 11:48:05;;;;;;;9.70;7.40;;;;;;;18.80;63.33;97846.48;107464;1274;22550;-88
2023/10/07 11:50:35;;;;;;;11.00;6.60;;;;;;;18.91;63.07;97843.07;107439;1267;22991;-92
2023/10/07 11:53:04;;;;;;;10.30;6.70;;;;;;;19.01;63.01;97844.16;107246;1274;22536;-88
2023/10/07 11:55:33;;;;;;;13.00;7.00;;;;;;;19.09;62.58;97857.05;107456;1274;24757;-87
2023/10/07 11:58:02;;;;;;;9.80;6.80;;;;;;;19.10;61.85;97844.66;107419;1274;25384;-86
2023/10/07 12:00:37;;;;;;;14.00;7.60;;;;;;;19.09;62.08;97841.99;107489;1270;24361;-87
2023/10/07 12:03:09;;;;;;;10.50;7.50;;;;;;;19.12;61.80;97837.61;107555;1274;25235;-89
2023/10/07 12:05:42;;;;;;;12.20;7.30;;;;;;;19.12;61.28;97831.53;108041;1274;22455;-85
2023/10/07 12:08:14;;;;;;;11.00;7.60;;;;;;;19.24;61.28;97828.52;107714;1274;24255;-89
2023/10/07 12:10:42;;;;;;;10.40;7.80;;;;;;;19.40;60.84;97824.02;107534;1274;25242;-88
2023/10/07 12:13:14;;;;;;;12.60;8.00;;;;;;;19.50;60.72;97821.27;107421;1274;25229;-87
2023/10/07 12:15:42;;;;;;;9.20;6.40;;;;;;;19.68;59.83;97822.67;107348;1274;22573;-87
2023/10/07 12:18:13;;;;;;;10.30;6.90;;;;;;;19.75;59.65;97809.45;107407;1273;22547;-88
2023/10/07 12:20:42;;;;;;;11.80;7.60;;;;;;;19.91;59.20;97814.44;107504;1274;22668;-87
2023/10/07 12:23:10;;;;;;;10.20;8.10;;;;;;;20.02;58.55;97811.66;107426;1262;22528;-89
2023/10/07 12:25:42;;;;;;;13.80;8.00;;;;;;;19.98;59.28;97810.42;107815;1274;22726;-88
2023/10/07 12:28:10;;;;;;;11.70;7.70;;;;;;;19.88;59.02;97802.71;107543;1274;25266;-88
2023/10/07 12:30:38;;;;;;;14.00;8.00;;;;;;;19.70;58.99;97800.67;108308;1274;22539;-87
2023/10/07 12:33:10;;;;;;;12.00;7.40;;;;;;;19.51;59.58;97795.35;109753;1274;22538;-87
2023/10/07 12:35:55;;;;;;;13.10;7.50;;;;;;;19.38;59.85;97790.41;110105;1274;22566;-88
2023/10/07 12:38:24;;;;;;;10.90;7.40;;;;;;;19.31;59.80;97796.43;107719;1274;24282;-88
2023/10/07 12:40:52;;;;;;;10.20;7.50;;;;;;;19.18;60.10;97791.72;107556;1274;24409;-88